createdAt,value
2022-10-01T00:02:41.147Z,84.50
2022-10-01T00:05:48.128Z,84.59
2022-10-01T00:08:53.985Z,85.03
2022-10-01T00:12:03.570Z,84.71
2022-10-01T00:15:12.880Z,84.76
2022-10-01T00:18:20.092Z,84.48
2022-10-01T00:21:27.648Z,84.32
2022-10-01T00:24:34.110Z,85.44
2022-10-01T00:27:42.637Z,84.87
2022-10-01T00:30:50.132Z,84.49
2022-10-01T00:33:55.986Z,84.58
2022-10-01T00:37:02.581Z,84.96
2022-10-01T00:40:09.837Z,84.72
2022-10-01T00:43:30.573Z,85.00
2022-10-01T00:46:42.097Z,84.81
2022-10-01T00:49:50.906Z,84.95
2022-10-01T00:52:59.845Z,84.87
2022-10-01T00:56:09.138Z,84.06
2022-10-01T00:59:18.399Z,84.70
2022-10-01T01:02:24.917Z,84.51
2022-10-01T01:05:30.686Z,85.34
2022-10-01T01:08:37.429Z,84.99
2022-10-01T01:11:57.514Z,84.75
2022-10-01T01:15:18.179Z,85.11
2022-10-01T01:18:30.099Z,85.46
2022-10-01T01:21:39.216Z,85.38
2022-10-01T01:24:53.427Z,84.98
2022-10-01T01:28:17.732Z,85.16
2022-10-01T01:31:29.674Z,85.76
2022-10-01T01:34:38.036Z,85.95
2022-10-01T01:37:56.732Z,85.95
2022-10-01T01:41:05.626Z,85.75
2022-10-01T01:44:17.838Z,85.43
2022-10-01T01:47:33.094Z,84.75
2022-10-01T01:50:47.061Z,84.44
2022-10-01T01:53:53.092Z,84.91
2022-10-01T01:57:03.212Z,84.77
2022-10-01T02:00:14.540Z,85.15
2022-10-01T02:03:22.252Z,85.11
2022-10-01T02:06:36.769Z,85.43
2022-10-01T02:09:53.222Z,85.76
2022-10-01T02:13:12.821Z,85.78
2022-10-01T02:16:27.907Z,85.32
2022-10-01T02:19:39.034Z,85.43
2022-10-01T02:22:53.009Z,84.84
2022-10-01T02:26:03.122Z,85.25
2022-10-01T02:29:13.375Z,85.21
2022-10-01T02:32:22.734Z,85.60
2022-10-01T02:35:31.654Z,85.55
2022-10-01T02:38:41.245Z,85.79
2022-10-01T02:41:51.001Z,86.00
2022-10-01T02:44:58.794Z,86.03
2022-10-01T02:48:11.874Z,85.91
2022-10-01T02:51:32.291Z,86.27
2022-10-01T02:54:43.384Z,86.10
2022-10-01T02:57:49.136Z,85.99
2022-10-01T03:00:55.643Z,85.99
2022-10-01T03:04:06.078Z,85.44
2022-10-01T03:07:12.546Z,85.70
2022-10-01T03:10:19.552Z,85.66
2022-10-01T03:13:26.172Z,85.72
2022-10-01T03:16:31.802Z,85.40
2022-10-01T03:19:41.225Z,85.97
2022-10-01T03:22:48.811Z,85.92
2022-10-01T03:25:55.232Z,85.78
2022-10-01T03:29:00.882Z,85.37
2022-10-01T03:32:07.805Z,85.25
2022-10-01T03:35:16.172Z,84.91
2022-10-01T03:38:22.649Z,84.91
2022-10-01T03:41:28.795Z,84.86
2022-10-01T03:44:35.546Z,84.98
2022-10-01T03:47:41.545Z,84.68
2022-10-01T03:50:58.600Z,84.64
2022-10-01T03:54:04.322Z,84.50
2022-10-01T03:57:10.726Z,84.61
2022-10-01T04:00:18.473Z,84.55
2022-10-01T04:03:25.176Z,84.73
2022-10-01T04:06:34.001Z,84.50
2022-10-01T04:09:40.457Z,84.38
2022-10-01T04:12:46.065Z,84.54
2022-10-01T04:15:52.537Z,84.16
2022-10-01T04:18:58.435Z,84.12
2022-10-01T04:22:08.877Z,83.97
2022-10-01T04:25:15.129Z,83.37
2022-10-01T04:28:21.906Z,83.80
2022-10-01T04:31:27.696Z,84.14
2022-10-01T04:34:46.469Z,84.15
2022-10-01T04:37:59.326Z,84.23
2022-10-01T04:41:06.185Z,84.65
2022-10-01T04:44:11.751Z,84.68
2022-10-01T04:47:18.184Z,84.59
2022-10-01T04:50:25.389Z,84.88
2022-10-01T04:53:34.720Z,84.97
2022-10-01T04:56:40.265Z,84.84
2022-10-01T04:59:46.670Z,85.04
2022-10-01T05:02:53.845Z,85.01
2022-10-01T05:06:00.322Z,85.03
2022-10-01T05:09:10.005Z,85.16
2022-10-01T05:12:17.678Z,85.43
2022-10-01T05:15:25.784Z,84.98
2022-10-01T05:18:32.613Z,85.06
2022-10-01T05:21:39.761Z,85.34
2022-10-01T05:24:49.130Z,85.28
2022-10-01T05:27:54.756Z,85.33
2022-10-01T05:31:02.621Z,84.63
2022-10-01T05:34:08.211Z,85.05
2022-10-01T05:37:14.677Z,85.27
2022-10-01T05:40:24.536Z,85.30
2022-10-01T05:43:31.629Z,85.46
2022-10-01T05:46:37.172Z,85.25
2022-10-01T05:49:44.686Z,84.87
2022-10-01T05:52:54.853Z,84.13
2022-10-01T05:56:06.195Z,84.52
2022-10-01T05:59:12.195Z,85.10
2022-10-01T06:02:18.744Z,84.66
2022-10-01T06:05:24.937Z,84.28
2022-10-01T06:08:31.369Z,84.82
2022-10-01T06:11:42.234Z,84.87
2022-10-01T06:14:48.674Z,84.77
2022-10-01T06:17:54.301Z,84.92
2022-10-01T06:21:02.625Z,84.87
2022-10-01T06:24:08.984Z,84.71
2022-10-01T06:27:18.740Z,84.53
2022-10-01T06:30:29.478Z,84.16
2022-10-01T06:33:35.970Z,84.36
2022-10-01T06:36:41.543Z,84.00
2022-10-01T06:39:48.375Z,84.04
2022-10-01T06:42:58.624Z,83.86
2022-10-01T06:46:08.294Z,83.96
2022-10-01T06:49:20.640Z,83.94
2022-10-01T06:52:42.779Z,83.67
2022-10-01T06:55:50.092Z,83.44
2022-10-01T06:58:59.272Z,83.34
2022-10-01T07:02:06.264Z,83.46
2022-10-01T07:05:13.178Z,83.00
2022-10-01T07:08:19.388Z,82.61
2022-10-01T07:11:27.263Z,82.23
2022-10-01T07:14:35.601Z,82.79
2022-10-01T07:17:47.176Z,82.96
2022-10-01T07:20:52.786Z,82.75
2022-10-01T07:23:59.216Z,82.80
2022-10-01T07:27:07.494Z,82.84
2022-10-01T07:30:17.269Z,82.40
2022-10-01T07:33:22.821Z,82.41
2022-10-01T07:36:29.642Z,82.17
2022-10-01T07:39:35.263Z,82.15
2022-10-01T07:42:42.024Z,81.66
2022-10-01T07:45:52.615Z,81.79
2022-10-01T07:48:59.100Z,81.52
2022-10-01T07:52:09.671Z,81.03
2022-10-01T07:55:19.044Z,81.19
2022-10-01T07:58:25.211Z,81.01
2022-10-01T08:01:34.800Z,80.87
2022-10-01T08:04:56.215Z,80.97
2022-10-01T08:08:04.216Z,79.63
2022-10-01T08:11:10.679Z,79.80
2022-10-01T08:14:19.342Z,80.08
2022-10-01T08:17:29.612Z,79.23
2022-10-01T08:20:36.822Z,79.31
2022-10-01T08:23:42.720Z,79.93
2022-10-01T08:26:53.886Z,79.20
2022-10-01T08:29:59.759Z,79.12
2022-10-01T08:33:13.734Z,78.72
2022-10-01T08:36:19.393Z,78.56
2022-10-01T08:39:26.175Z,78.50
2022-10-01T08:42:50.748Z,77.76
2022-10-01T08:46:00.702Z,77.54
2022-10-01T08:49:18.907Z,77.17
2022-10-01T08:52:28.288Z,76.90
2022-10-01T08:55:39.487Z,76.57
2022-10-01T08:58:51.360Z,76.84
2022-10-01T09:01:59.273Z,76.57
2022-10-01T09:05:19.611Z,77.34
2022-10-01T09:08:46.590Z,77.58
2022-10-01T09:12:07.289Z,77.13
2022-10-01T09:15:23.179Z,76.64
2022-10-01T09:18:48.002Z,75.75
2022-10-01T09:22:02.662Z,75.40
2022-10-01T09:25:17.255Z,75.55
2022-10-01T09:28:25.176Z,74.91
2022-10-01T09:31:37.061Z,74.79
2022-10-01T09:34:45.988Z,75.28
2022-10-01T09:37:59.377Z,75.64
2022-10-01T09:41:06.462Z,75.18
2022-10-01T09:44:20.561Z,74.88
2022-10-01T09:47:28.325Z,74.99
2022-10-01T09:50:42.997Z,75.21
2022-10-01T09:54:02.712Z,74.84
2022-10-01T09:57:12.535Z,74.35
2022-10-01T10:00:21.349Z,74.39
2022-10-01T10:03:30.969Z,74.27
2022-10-01T10:06:37.754Z,74.17
2022-10-01T10:09:47.522Z,74.31
2022-10-01T10:12:58.961Z,74.67
2022-10-01T10:16:18.656Z,74.96
2022-10-01T10:19:26.646Z,75.25
2022-10-01T10:22:33.110Z,75.33
2022-10-01T10:25:41.509Z,75.49
2022-10-01T10:28:49.022Z,75.22
2022-10-01T10:31:56.437Z,75.54
2022-10-01T10:35:06.583Z,75.33
2022-10-01T10:38:21.058Z,74.88
2022-10-01T10:41:33.130Z,74.59
2022-10-01T10:44:41.334Z,74.75
2022-10-01T10:47:49.909Z,74.23
2022-10-01T10:51:03.471Z,74.55
2022-10-01T10:54:21.304Z,74.36
2022-10-01T10:57:31.502Z,74.54
2022-10-01T11:00:46.669Z,74.18
2022-10-01T11:03:56.291Z,74.71
2022-10-01T11:07:04.361Z,74.30
2022-10-01T11:10:23.659Z,74.49
2022-10-01T11:14:05.895Z,73.37
2022-10-01T11:17:31.190Z,72.77
2022-10-01T11:20:50.262Z,72.71
2022-10-01T11:24:14.660Z,73.30
2022-10-01T11:27:29.978Z,73.05
2022-10-01T11:30:49.488Z,72.52
2022-10-01T11:34:10.525Z,72.17
2022-10-01T11:37:31.991Z,71.90
2022-10-01T11:40:43.863Z,71.40
2022-10-01T11:43:55.187Z,70.87
2022-10-01T11:47:09.282Z,71.21
2022-10-01T11:50:20.763Z,70.48
2022-10-01T11:53:33.541Z,71.02
2022-10-01T11:56:59.570Z,70.88
2022-10-01T12:00:10.966Z,70.61
2022-10-01T12:03:32.648Z,71.05
2022-10-01T12:06:44.666Z,71.24
2022-10-01T12:10:00.619Z,71.26
2022-10-01T12:13:16.028Z,71.05
2022-10-01T12:16:31.159Z,70.99
2022-10-01T12:19:45.470Z,70.87
2022-10-01T12:22:53.010Z,71.01
2022-10-01T12:26:06.488Z,70.80
2022-10-01T12:29:20.116Z,70.98
2022-10-01T12:32:43.316Z,70.56
2022-10-01T12:36:03.371Z,70.93
2022-10-01T12:39:26.501Z,71.12
2022-10-01T12:43:04.443Z,70.97
2022-10-01T12:46:25.465Z,71.16
2022-10-01T12:49:38.488Z,71.35
2022-10-01T12:52:56.711Z,71.59
2022-10-01T12:56:10.516Z,72.13
2022-10-01T12:59:38.693Z,71.91
2022-10-01T13:03:32.228Z,72.74
2022-10-01T13:06:47.774Z,72.22
2022-10-01T13:10:08.554Z,72.40
2022-10-01T13:13:21.168Z,72.32
2022-10-01T13:16:34.227Z,72.00
2022-10-01T13:19:48.301Z,72.26
2022-10-01T13:23:00.272Z,72.11
2022-10-01T13:26:17.658Z,72.23
2022-10-01T13:29:35.282Z,72.52
2022-10-01T13:32:54.204Z,72.50
2022-10-01T13:36:02.887Z,72.29
2022-10-01T13:39:09.659Z,72.71
2022-10-01T13:42:27.711Z,72.74
2022-10-01T13:45:42.905Z,72.44
2022-10-01T13:48:51.973Z,72.83
2022-10-01T13:51:59.123Z,72.62
2022-10-01T13:55:05.822Z,72.87
2022-10-01T13:58:33.826Z,72.88
2022-10-01T14:01:44.067Z,73.04
2022-10-01T14:04:51.631Z,72.98
2022-10-01T14:08:11.789Z,73.09
2022-10-01T14:11:37.242Z,73.36
2022-10-01T14:15:08.688Z,73.34
2022-10-01T14:18:20.741Z,73.55
2022-10-01T14:21:42.856Z,73.55
2022-10-01T14:25:11.081Z,73.37
2022-10-01T14:28:50.026Z,73.14
2022-10-01T14:32:11.235Z,73.31
2022-10-01T14:35:35.431Z,73.06
2022-10-01T14:38:41.869Z,73.15
2022-10-01T14:41:48.576Z,72.97
2022-10-01T14:44:55.301Z,72.27
2022-10-01T14:48:08.772Z,71.99
2022-10-01T14:51:28.141Z,71.79
2022-10-01T14:54:44.141Z,71.77
2022-10-01T14:57:53.485Z,71.24
2022-10-01T15:01:00.969Z,70.89
2022-10-01T15:04:17.629Z,71.15
2022-10-01T15:07:23.636Z,70.97
2022-10-01T15:10:31.354Z,71.01
2022-10-01T15:13:39.678Z,70.49
2022-10-01T15:16:46.234Z,70.29
2022-10-01T15:19:58.750Z,70.39
2022-10-01T15:23:08.911Z,70.63
2022-10-01T15:26:21.281Z,70.46
2022-10-01T15:29:27.853Z,70.74
2022-10-01T15:32:33.637Z,70.89
2022-10-01T15:35:42.952Z,70.65
2022-10-01T15:38:51.046Z,70.44
2022-10-01T15:41:58.699Z,70.92
2022-10-01T15:45:26.194Z,71.04
2022-10-01T15:48:33.804Z,71.13
2022-10-01T15:52:11.199Z,71.15
2022-10-01T15:55:22.054Z,71.58
2022-10-01T15:58:31.971Z,71.73
2022-10-01T16:01:43.093Z,71.99
2022-10-01T16:04:49.253Z,72.33
2022-10-01T16:08:00.631Z,72.57
2022-10-01T16:11:20.996Z,72.62
2022-10-01T16:14:33.954Z,72.69
2022-10-01T16:17:41.030Z,72.80
2022-10-01T16:20:51.123Z,72.98
2022-10-01T16:23:59.654Z,73.13
2022-10-01T16:27:06.484Z,73.23
2022-10-01T16:30:21.381Z,73.11
2022-10-01T16:33:28.669Z,73.36
2022-10-01T16:36:36.221Z,73.25
2022-10-01T16:39:46.194Z,73.57
2022-10-01T16:43:04.400Z,73.40
2022-10-01T16:46:11.311Z,73.61
2022-10-01T16:53:31.545Z,73.97
2022-10-01T16:56:41.442Z,74.07
2022-10-01T16:59:47.879Z,73.97
2022-10-01T17:02:53.472Z,74.02
2022-10-01T17:06:00.114Z,74.15
2022-10-01T17:09:07.687Z,74.17
2022-10-01T17:12:16.829Z,74.40
2022-10-01T17:15:26.586Z,74.36
2022-10-01T17:18:33.086Z,74.43
2022-10-01T17:21:39.184Z,74.44
2022-10-01T17:24:45.581Z,74.64
2022-10-01T17:27:53.979Z,74.73
2022-10-01T17:31:00.518Z,74.78
2022-10-01T17:34:07.801Z,74.86
2022-10-01T17:37:14.634Z,74.87
2022-10-01T17:40:20.411Z,75.05
2022-10-01T17:43:29.753Z,75.17
2022-10-01T17:46:35.695Z,75.45
2022-10-01T17:49:43.691Z,75.57
2022-10-01T17:52:50.476Z,75.89
2022-10-01T17:55:56.917Z,76.26
2022-10-01T17:59:06.650Z,76.25
2022-10-01T18:02:39.689Z,75.74
2022-10-01T18:05:40.843Z,75.88
2022-10-01T18:08:56.305Z,75.88
2022-10-01T18:12:03.432Z,75.87
2022-10-01T18:15:14.017Z,75.02
2022-10-01T18:19:51.362Z,74.08
2022-10-01T18:21:46.336Z,73.29
2022-10-01T18:24:51.914Z,71.77
2022-10-01T18:27:58.449Z,70.89
2022-10-01T18:31:26.743Z,71.24
2022-10-01T18:34:40.608Z,72.36
2022-10-01T18:37:50.983Z,74.05
2022-10-01T18:41:02.939Z,75.54
2022-10-01T18:44:16.783Z,76.32
2022-10-01T18:47:39.224Z,76.86
2022-10-01T18:50:49.172Z,77.81
2022-10-01T18:54:12.801Z,78.54
2022-10-01T18:57:29.187Z,79.08
2022-10-01T19:04:47.829Z,80.15
2022-10-01T19:08:07.186Z,80.66
2022-10-01T19:11:20.924Z,80.91
2022-10-01T19:14:51.308Z,81.58
2022-10-01T19:18:19.863Z,81.44
2022-10-01T19:21:36.805Z,81.82
2022-10-01T19:24:58.049Z,81.74
2022-10-01T19:28:17.230Z,82.29
2022-10-01T19:31:30.449Z,82.56
2022-10-01T19:34:42.208Z,83.27
2022-10-01T19:37:54.612Z,83.58
2022-10-01T19:41:07.734Z,83.63
2022-10-01T19:44:17.186Z,83.04
2022-10-01T19:47:33.890Z,83.11
2022-10-01T19:50:43.693Z,82.87
2022-10-01T19:54:01.190Z,82.20
2022-10-01T19:57:09.542Z,82.32
2022-10-01T20:00:21.855Z,82.24
2022-10-01T20:03:36.227Z,82.26
2022-10-01T20:06:47.421Z,82.19
2022-10-01T20:10:06.771Z,82.70
2022-10-01T20:13:26.619Z,82.66
2022-10-01T20:16:38.272Z,82.93
2022-10-01T20:19:53.023Z,82.90
2022-10-01T20:23:11.263Z,83.15
2022-10-01T20:26:32.937Z,83.03
2022-10-01T20:29:47.234Z,82.70
2022-10-01T20:33:02.903Z,82.81
2022-10-01T20:36:17.336Z,82.97
2022-10-01T20:39:29.401Z,83.25
2022-10-01T20:42:42.203Z,83.31
2022-10-01T20:45:53.097Z,83.23
2022-10-01T20:49:06.118Z,83.45
2022-10-01T20:52:22.827Z,83.16
2022-10-01T20:55:39.014Z,83.56
2022-10-01T20:58:53.390Z,83.78
2022-10-01T21:02:03.217Z,83.99
2022-10-01T21:05:16.679Z,83.90
2022-10-01T21:08:37.474Z,83.72
2022-10-01T21:11:48.034Z,84.22
2022-10-01T21:14:58.182Z,84.39
2022-10-01T21:18:12.891Z,84.20
2022-10-01T21:21:28.587Z,83.96
2022-10-01T21:24:52.483Z,83.89
2022-10-01T21:28:10.762Z,84.16
2022-10-01T21:31:35.081Z,84.10
2022-10-01T21:34:54.185Z,84.31
2022-10-01T21:38:13.145Z,84.08
2022-10-01T21:41:34.675Z,84.21
2022-10-01T21:45:02.484Z,83.97
2022-10-01T21:48:22.762Z,84.19
2022-10-01T21:51:40.523Z,83.65
2022-10-01T21:55:25.124Z,83.74
2022-10-01T21:58:47.415Z,83.72
2022-10-01T22:02:07.639Z,83.50
2022-10-01T22:05:24.799Z,84.04
2022-10-01T22:08:44.508Z,83.84
2022-10-01T22:11:56.411Z,83.58
2022-10-01T22:15:02.863Z,83.78
2022-10-01T22:18:15.352Z,84.03
2022-10-01T22:21:38.508Z,83.96
2022-10-01T22:24:49.765Z,83.92
2022-10-01T22:28:00.425Z,84.22
2022-10-01T22:31:09.774Z,84.07
2022-10-01T22:34:21.306Z,84.58
2022-10-01T22:37:36.623Z,84.34
2022-10-01T22:40:48.455Z,84.67
2022-10-01T22:43:54.899Z,84.38
2022-10-01T22:47:20.345Z,84.38
2022-10-01T22:50:39.310Z,84.61
2022-10-01T22:54:05.903Z,84.42
2022-10-01T22:57:26.455Z,84.82
2022-10-01T23:00:34.851Z,84.76
2022-10-01T23:03:56.909Z,85.26
2022-10-01T23:07:12.043Z,85.30
2022-10-01T23:10:36.560Z,85.48
2022-10-01T23:13:50.265Z,85.66
2022-10-01T23:17:02.911Z,85.64
2022-10-01T23:20:22.791Z,85.46
2022-10-01T23:23:33.843Z,85.68
2022-10-01T23:26:52.756Z,85.35
2022-10-01T23:30:11.915Z,85.47
2022-10-01T23:33:30.638Z,85.24
2022-10-01T23:36:44.929Z,84.87
2022-10-01T23:39:55.289Z,85.15
2022-10-01T23:43:12.794Z,84.64
2022-10-01T23:46:21.722Z,84.65
2022-10-01T23:49:34.012Z,85.02
2022-10-01T23:52:45.516Z,85.06
2022-10-01T23:56:16.266Z,85.15
2022-10-01T23:59:31.381Z,84.92
